Scroll down
FLIGHT INFORMATION
KLM Royal Dutch Airlines

KLM259

At Arrival Gate

EHAM
 KBOS
DATE: 2018-11-17
GATE: E5
GATE DEPARTURE: 09:19
TAKEOFF: 09:32
DATE: 2018-11-17
GATE:  -
LANDING: 16:24
GATE ARRIVAL: 16:33
FLIGHT DATA
Crew: 
Speed: 
505 kts
Altitude: 
38,002 ft
Stage Length: 
2,995.4 nm
Block Time: 
7.2 hrs
Flight Time: 
6.9 hrs
Fuel Used: 
152,339 lb
Cleared Route: EH053 EH094 EH022 BERGI AMGOD SUPUR MIMVA GETNO REMSI NIBOG PIKIL 5720N 5830N 5840N 5650N JANJO TAFFY ENE
TRACK DATA
50,000 ft 1,000 kts
AIRCRAFT INFO AND CUMULATIVE STATS
Aircraft Type: 
B744
Registration: 
SELCAL: 
KMDR
MSN/LN: 
28459 / 1112
Total Flights: 
9
Total Block Time: 
69.8 hrs
Total Flight Time: 
67.5 hrs
Total Fuel Time: 
1,489,986 lb
DATALINK LOG | Newest first | Current as of: 2020-12-02 22:00:14
LABEL SEQUENCE CONTENT Dn/Up
QD331316:33 40.5▼ Dn
QC243616:24▼ Dn
2U5312KBOS 172254Z 28011G18KT 10SM BKN050 08/M02 A3013 RMK AO2 SLP201 T00781022▲ Up
2S5312KBOS▼ Dn
2U3751KBOS 171754Z 27013G20KT 10SM SCT040 BKN060 09/M01 A3004 RMK AO2 SLP172 T00891011 10100 20044 55002▲ Up
2S3751KBOS▼ Dn
QB324309:32▼ Dn
QA195509:19 193.1▼ Dn
2U2952EHAM 171255Z 08011KT 050V110 CAVOK 08/03 Q1031 NOSIG▲ Up
2S2952EHAM▼ Dn


AIRCRAFT HISTORY
FLIGHT DATE FLIGHT NO. ORIGIN DESTINATION CLEARED ROUTE BLOCK TIME FLIGHT TIME FUEL USED PILOT
2019-10-14KLM604KLAX EHAM KLAX DOCKR KLIPR KEGGS COOPP ORCKA NNAVY BLAZN LAS BEALE NOOTN BETHL FREDD DICEE DVC HBU HCT OBH KP75G KG81K DLL TVC YSB YVO ROBBE HOIST 5650N 5640N 5630N 5620N PIKIL SOVED NIBOG REMSI BELOX TENSO DESIG ELNOD MAMUL EDUXO LAMIX ROGAG AMVEL DOLAS ENITO DIBAL BUKUT LAMSO ETPOS SUGOL EHAM10.1 hrs9.8 hrs222,052 lbTom Landry
2019-10-03KLM601EHAM KLAX EHAM EH047 EH094 EH034 BERGI AMGOD SUPUR GODOS BINBO ROKAN NEXUS RUGID NINEX BALIX 6120N 6230N 6240N 6150N SAVRY SINGA VP GW YAT QN YQT MPCEG MECNU BYPOR HUDRU UDORY SUZLI WEMAN VURLY DLH ABR RAP DDY OCS URNUW MLF WINEN EEVUN ZAINY GUNTR LAKRR ZZYZX HAKMN SHTNR SMASH SALYY GLESN ANJLL CAANN BOYEL CRCUS KLAX11.5 hrs11.1 hrs269,558 lbTom Landry
2019-03-18KLM606KSFO EHAM KSFO TRUKN DEDHD RBL KS84G KS12I YYC NUDET YWV 5330N11000W 58N00 6130N09000W 6330N08000W ALSAK KENKI AVPUT 6650N 6540N 6330N 6120N GOMUP GINGA GOW TLA ERKIT OTR LIBSO SUPEL DOLAS ENITO DIBAL BUKUT LAMSO ETPOS SUGOL R292O EHAM10.6 hrs10.2 hrs223,121 lbTom Landry
2019-03-11KLM605EHAM KSFO EHAM EH015 BERGI AMGOD SUPUR GODOS BINBO ROKAN TINDI ROLUM ASKAM CUTEL ODMIX FORTY SUM 6410N 6820N 7130N INGUM 7084N 6893N 65N00 62N05 IKLIX YMM YEG YXC BZXIV GEG IMB LKV RBL MRRLO MSCAT BGGLO LOZIT BDEGA CORKK BRIXX EDDYY RW28R10.9 hrs10.4 hrs224,066 lbTom Landry
2018-11-23KLM789TNCC EHAM RW11 OLITO NOXAD SINDA REVOK LUCAS ACORA SILVA ILMET MILOK RAYAS RAFEE ANNER PORQE DANDE PJM MNOLO NEYDU OBIKE RKDIA 3150N 3940N 4330N 4520N REGHI BADUR UPALO EKRAS ARGED LGL DITAL EVX PODEM SOMIL BELDI VEKIN ADUTO FERDI DENUT HSD RIVER R222O8.7 hrs8.4 hrs174,964 lbTom Landry
2018-11-21KLM789TNCM TNCC DER10 DANDE PORQE ANNER RAFEE RAYAS MILOK ILMET SILVA ACORA LUCAS REVOK SINDA1.5 hrs1.3 hrs29,023 lbTom Landry
2018-11-20KLM787KBOS TNCM CLAWW FENWY BUCYK BRUWN CRACO GROGG ACK MARIG TILED KINER BOVIC FLAMO GUICE LITTL PIERC ROOFE SICKL GECAL BRKZZ DUPAN QNEPA OPAUL YIYYO TRNKY ULUBA3.7 hrs3.4 hrs69,055 lbTom Landry
2018-11-17KLM259EHAM KBOS EH053 EH094 EH022 BERGI AMGOD SUPUR MIMVA GETNO REMSI NIBOG PIKIL 5720N 5830N 5840N 5650N JANJO TAFFY ENE7.2 hrs6.9 hrs152,339 lbTom Landry
2018-10-28KLM644KJFK EHAM MERIT HFD PUT TOPPS NEEKO 5450N 5540N 5530N 5420N DOGAL BEXET NIBOG REMSI GETNO HALIF RIMTO BATLI GOLES GIPLO SIVBU VEGUS OTBED SUPEL DOLAS ENITO DIBAL BUKUT LAMSO ETPOS SUGOL R292O6.5 hrs6.1 hrs125,808 lbTom Landry